Terminal Aerodrome Forecast
Issued by NWS

Home | Current Version | Previous Version | Text Only | Print | Product List | Glossary On
Versions: 1 2 3 4 5 6 7 8 9 10 11 12 13 14 15 16 17 18 19 20
000
FTUS44 KLZK 031700
TAFLLQ
TAF
KLLQ 031738Z 0318/0418 20005KT 1/2SM FG VCSH OVC002
      TEMPO 0318/0321 2SM BR OVC005
     FM032100 21007KT 4SM BR VCSH BKN008 OVC020
     FM040000 22005KT 4SM -RA BR BKN008 OVC020
      TEMPO 0400/0404 2SM -RA BR OVC008
     FM040400 22006KT 2SM -RA BR BKN005 OVC015
     FM040800 22005KT 1SM -RA BR OVC005
      TEMPO 0408/0412 1/2SM -RA FG OVC002=

USA.gov is the U.S. government's official web portal to all federal, state and local government web resources and services.